createdAt,value
2018-04-13T00:01:27.076Z,9.52
2018-04-13T00:03:54.544Z,9.45
2018-04-13T00:06:21.994Z,9.41
2018-04-13T00:08:49.492Z,9.40
2018-04-13T00:11:16.972Z,9.35
2018-04-13T00:13:44.439Z,9.26
2018-04-13T00:16:11.897Z,9.18
2018-04-13T00:18:39.372Z,9.12
2018-04-13T00:21:06.971Z,9.08
2018-04-13T00:23:34.456Z,9.02
2018-04-13T00:26:03.591Z,8.91
2018-04-13T00:28:31.117Z,8.89
2018-04-13T00:30:58.609Z,8.86
2018-04-13T00:33:26.138Z,8.82
2018-04-13T00:35:53.592Z,8.82
2018-04-13T00:38:21.083Z,8.82
2018-04-13T00:40:48.568Z,8.81
2018-04-13T00:43:16.062Z,8.83
2018-04-13T00:45:43.526Z,8.84
2018-04-13T00:48:11.045Z,8.89
2018-04-13T00:50:38.820Z,8.91
2018-04-13T00:53:18.081Z,8.92
2018-04-13T00:55:45.532Z,8.92
2018-04-13T00:58:13.019Z,8.88
2018-04-13T01:00:40.488Z,8.82
2018-04-13T01:03:07.952Z,8.86
2018-04-13T01:05:35.445Z,8.87
2018-04-13T01:08:03.034Z,8.86
2018-04-13T01:10:30.534Z,8.86
2018-04-13T01:12:58.001Z,8.85
2018-04-13T01:15:25.475Z,8.83
2018-04-13T01:17:52.942Z,8.85
2018-04-13T01:20:20.442Z,8.85
2018-04-13T01:22:47.898Z,8.89
2018-04-13T01:25:15.383Z,8.85
2018-04-13T01:27:42.874Z,8.81
2018-04-13T01:30:10.349Z,8.80
2018-04-13T01:32:37.821Z,8.78
2018-04-13T01:35:05.297Z,8.75
2018-04-13T01:37:32.784Z,8.82
2018-04-13T01:40:00.280Z,8.77
2018-04-13T01:42:27.767Z,8.72
2018-04-13T01:44:55.260Z,8.73
2018-04-13T01:47:22.738Z,8.68
2018-04-13T01:49:50.220Z,8.67
2018-04-13T01:52:17.706Z,8.63
2018-04-13T01:54:45.192Z,8.65
2018-04-13T01:57:12.677Z,8.63
2018-04-13T01:59:40.439Z,8.62
2018-04-13T02:02:07.996Z,8.72
2018-04-13T02:04:35.507Z,8.71
2018-04-13T02:07:03.099Z,8.72
2018-04-13T02:09:30.594Z,8.73
2018-04-13T02:11:58.102Z,8.73
2018-04-13T02:14:25.580Z,8.73
2018-04-13T02:16:53.082Z,8.74
2018-04-13T02:19:20.573Z,8.74
2018-04-13T02:21:48.047Z,8.78
2018-04-13T02:24:15.592Z,8.78
2018-04-13T02:26:43.209Z,8.74
2018-04-13T02:29:11.412Z,8.73
2018-04-13T02:31:38.885Z,8.69
2018-04-13T02:34:06.584Z,8.71
2018-04-13T02:36:34.053Z,8.75
2018-04-13T02:39:01.533Z,8.70
2018-04-13T02:41:28.990Z,8.70
2018-04-13T02:43:56.473Z,8.74
2018-04-13T02:46:23.953Z,8.74
2018-04-13T02:48:51.497Z,8.71
2018-04-13T02:51:18.975Z,8.66
2018-04-13T02:53:46.438Z,8.59
2018-04-13T02:56:13.966Z,8.51
2018-04-13T02:58:41.509Z,8.35
2018-04-13T03:01:08.985Z,8.37
2018-04-13T03:03:36.442Z,8.38
2018-04-13T03:06:03.922Z,8.45
2018-04-13T03:08:31.400Z,8.44
2018-04-13T03:10:58.962Z,8.48
2018-04-13T03:13:26.505Z,8.44
2018-04-13T03:15:53.995Z,8.38
2018-04-13T03:18:21.446Z,8.36
2018-04-13T03:20:48.913Z,8.19
2018-04-13T03:23:16.381Z,8.20
2018-04-13T03:25:43.853Z,8.22
2018-04-13T03:28:11.322Z,8.21
2018-04-13T03:30:38.801Z,8.21
2018-04-13T03:33:06.276Z,8.17
2018-04-13T03:35:33.756Z,8.16
2018-04-13T03:38:01.275Z,8.06
2018-04-13T03:40:28.726Z,8.07
2018-04-13T03:42:56.203Z,8.08
2018-04-13T03:45:23.662Z,8.07
2018-04-13T03:47:51.121Z,8.08
2018-04-13T03:50:18.590Z,8.12
2018-04-13T03:52:46.062Z,8.15
2018-04-13T03:55:13.536Z,8.17
2018-04-13T03:57:41.003Z,8.21
2018-04-13T04:00:08.471Z,8.24
2018-04-13T04:02:35.951Z,8.26
2018-04-13T04:05:03.439Z,8.29
2018-04-13T04:07:30.953Z,8.32
2018-04-13T04:09:58.450Z,8.35
2018-04-13T04:12:25.965Z,8.40
2018-04-13T04:14:53.433Z,8.44
2018-04-13T04:17:20.912Z,8.49
2018-04-13T04:20:00.230Z,8.53
2018-04-13T04:22:39.676Z,8.55
2018-04-13T04:28:30.074Z,8.68
2018-04-13T04:30:57.579Z,8.70
2018-04-13T04:33:25.073Z,8.74
2018-04-13T04:35:52.563Z,8.82
2018-04-13T04:38:20.088Z,8.90
2018-04-13T04:40:47.554Z,8.91
2018-04-13T04:43:15.029Z,8.92
2018-04-13T04:45:42.510Z,8.96
2018-04-13T04:48:10.053Z,8.94
2018-04-13T04:50:37.543Z,8.92
2018-04-13T04:53:05.132Z,8.87
2018-04-13T04:55:32.615Z,8.75
2018-04-13T04:58:00.077Z,8.68
2018-04-13T05:00:27.694Z,8.77
2018-04-13T05:02:55.161Z,8.81
2018-04-13T05:05:22.625Z,8.83
2018-04-13T05:07:50.104Z,8.87
2018-04-13T05:10:17.582Z,8.89
2018-04-13T05:12:45.077Z,8.89
2018-04-13T05:15:12.571Z,8.91
2018-04-13T05:17:40.200Z,9.06
2018-04-13T05:20:07.802Z,9.15
2018-04-13T05:22:35.296Z,9.24
2018-04-13T05:25:02.779Z,9.36
2018-04-13T05:27:30.248Z,9.46
2018-04-13T05:29:57.718Z,9.56
2018-04-13T05:32:25.193Z,9.66
2018-04-13T05:34:52.689Z,9.73
2018-04-13T05:37:20.182Z,9.80
2018-04-13T05:39:47.661Z,9.86
2018-04-13T05:42:15.119Z,9.91
2018-04-13T05:44:42.591Z,10.00
2018-04-13T05:47:10.180Z,10.04
2018-04-13T05:49:37.831Z,10.09
2018-04-13T05:52:05.304Z,10.11
2018-04-13T05:54:33.010Z,10.14
2018-04-13T05:57:00.762Z,10.16
2018-04-13T05:59:28.397Z,10.14
2018-04-13T06:01:56.012Z,9.92
2018-04-13T06:04:23.750Z,9.80
2018-04-13T06:06:51.357Z,9.90
2018-04-13T06:09:18.886Z,9.96
2018-04-13T06:11:46.395Z,9.79
2018-04-13T06:14:13.998Z,10.03
2018-04-13T06:16:41.483Z,10.06
2018-04-13T06:19:08.981Z,10.08
2018-04-13T06:21:42.305Z,10.27
2018-04-13T06:24:09.867Z,10.47
2018-04-13T06:26:37.365Z,10.74
2018-04-13T06:29:04.842Z,10.92
2018-04-13T06:31:32.358Z,11.15
2018-04-13T06:34:00.054Z,11.33
2018-04-13T06:36:27.589Z,11.52
2018-04-13T06:38:55.086Z,11.66
2018-04-13T06:41:22.713Z,11.70
2018-04-13T06:43:50.201Z,11.73
2018-04-13T06:46:17.760Z,11.71
2018-04-13T06:48:45.438Z,11.80
2018-04-13T06:51:13.055Z,11.69
2018-04-13T06:53:40.655Z,11.87
2018-04-13T06:56:08.137Z,12.00
2018-04-13T06:58:35.667Z,12.10
2018-04-13T07:01:03.196Z,12.27
2018-04-13T07:03:30.685Z,12.38
2018-04-13T07:05:58.348Z,12.49
2018-04-13T07:08:25.899Z,12.56
2018-04-13T07:10:53.374Z,12.61
2018-04-13T07:13:20.870Z,12.52
2018-04-13T07:15:48.520Z,12.54
2018-04-13T07:18:16.071Z,12.48
2018-04-13T07:20:43.610Z,12.60
2018-04-13T07:23:11.144Z,12.80
2018-04-13T07:25:38.623Z,12.93
2018-04-13T07:28:06.106Z,13.06
2018-04-13T07:30:33.749Z,13.19
2018-04-13T07:33:01.303Z,13.25
2018-04-13T07:35:28.791Z,13.27
2018-04-13T07:37:56.301Z,13.43
2018-04-13T07:40:23.904Z,13.58
2018-04-13T07:42:51.372Z,13.57
2018-04-13T07:45:18.886Z,13.69
2018-04-13T07:47:46.356Z,13.66
2018-04-13T07:50:14.214Z,13.71
2018-04-13T07:52:41.435Z,13.70
2018-04-13T07:55:08.961Z,13.85
2018-04-13T07:57:36.517Z,13.91
2018-04-13T08:00:04.056Z,14.08
2018-04-13T08:02:31.535Z,14.11
2018-04-13T08:04:59.048Z,14.20
2018-04-13T08:07:26.537Z,14.35
2018-04-13T08:09:54.065Z,14.29
2018-04-13T08:12:21.540Z,14.23
2018-04-13T08:14:49.048Z,14.35
2018-04-13T08:17:16.529Z,14.23
2018-04-13T08:19:44.066Z,14.36
2018-04-13T08:22:11.733Z,14.54
2018-04-13T08:24:39.311Z,14.57
2018-04-13T08:27:06.811Z,14.65
2018-04-13T08:29:34.317Z,14.98
2018-04-13T08:32:01.849Z,15.20
2018-04-13T08:34:29.344Z,15.30
2018-04-13T08:36:56.822Z,15.42
2018-04-13T08:39:24.315Z,15.56
2018-04-13T08:41:51.954Z,15.56
2018-04-13T08:44:19.491Z,15.44
2018-04-13T08:46:46.998Z,15.19
2018-04-13T08:49:14.704Z,15.08
2018-04-13T08:51:42.038Z,14.83
2018-04-13T08:54:09.539Z,14.82
2018-04-13T08:56:37.016Z,14.82
2018-04-13T08:59:04.490Z,14.67
2018-04-13T09:01:31.961Z,14.65
2018-04-13T09:03:59.454Z,14.62
2018-04-13T09:06:26.980Z,14.60
2018-04-13T09:08:54.498Z,14.57
2018-04-13T09:11:22.004Z,14.46
2018-04-13T09:13:49.495Z,14.29
2018-04-13T09:16:16.996Z,14.38
2018-04-13T09:18:44.458Z,14.10
2018-04-13T09:21:11.932Z,14.18
2018-04-13T09:23:39.406Z,14.13
2018-04-13T09:26:06.873Z,14.24
2018-04-13T09:28:34.381Z,13.98
2018-04-13T09:31:01.892Z,14.01
2018-04-13T09:33:29.388Z,14.01
2018-04-13T09:35:56.867Z,14.00
2018-04-13T09:38:24.341Z,13.96
2018-04-13T09:40:51.845Z,13.86
2018-04-13T09:43:19.364Z,13.93
2018-04-13T09:45:46.864Z,13.92
2018-04-13T09:48:14.332Z,13.82
2018-04-13T09:50:41.876Z,13.72
2018-04-13T09:53:09.360Z,13.85
2018-04-13T09:55:36.824Z,13.64
2018-04-13T09:58:04.321Z,13.40
2018-04-13T10:00:31.948Z,13.17
2018-04-13T10:03:03.261Z,12.85
2018-04-13T10:05:30.791Z,12.81
2018-04-13T10:07:58.549Z,12.73
2018-04-13T10:10:26.141Z,12.64
2018-04-13T10:12:53.615Z,12.56
2018-04-13T10:15:21.118Z,12.44
2018-04-13T10:17:48.631Z,12.39
2018-04-13T10:20:16.121Z,12.40
2018-04-13T10:22:43.594Z,12.27
2018-04-13T10:25:11.098Z,12.12
2018-04-13T10:27:38.618Z,11.78
2018-04-13T10:30:06.153Z,11.43
2018-04-13T10:32:33.702Z,10.83
2018-04-13T10:35:01.240Z,10.51
2018-04-13T10:37:28.719Z,10.40
2018-04-13T10:39:56.186Z,10.38
2018-04-13T10:42:23.792Z,10.35
2018-04-13T10:44:51.294Z,10.31
2018-04-13T10:47:18.813Z,10.21
2018-04-13T10:49:46.323Z,10.10
2018-04-13T10:52:13.821Z,10.08
2018-04-13T10:54:41.505Z,10.09
2018-04-13T10:57:08.987Z,10.06
2018-04-13T10:59:36.456Z,10.02
2018-04-13T11:02:06.188Z,10.01
2018-04-13T11:04:33.761Z,10.00
2018-04-13T11:07:01.552Z,10.06
2018-04-13T11:09:29.180Z,9.93
2018-04-13T11:11:57.011Z,9.92
2018-04-13T11:14:24.521Z,9.92
2018-04-13T11:16:52.008Z,9.89
2018-04-13T11:19:20.092Z,9.85
2018-04-13T11:21:47.584Z,9.81
2018-04-13T11:24:15.059Z,9.77
2018-04-13T11:26:42.528Z,9.79
2018-04-13T11:29:10.021Z,9.95
2018-04-13T11:31:37.495Z,9.97
2018-04-13T11:34:05.121Z,9.94
2018-04-13T11:36:32.629Z,9.92
2018-04-13T11:39:00.118Z,9.89
2018-04-13T11:44:15.914Z,9.97
2018-04-13T11:46:43.403Z,10.00
2018-04-13T11:49:10.886Z,10.06
2018-04-13T11:51:38.435Z,10.03
2018-04-13T11:54:05.908Z,10.08
2018-04-13T11:56:33.400Z,10.14
2018-04-13T11:59:00.877Z,10.25
2018-04-13T12:01:28.372Z,10.23
2018-04-13T12:03:55.863Z,10.14
2018-04-13T12:06:23.330Z,10.07
2018-04-13T12:08:50.817Z,10.11
2018-04-13T12:11:18.530Z,10.08
2018-04-13T12:13:46.020Z,10.12
2018-04-13T12:16:13.500Z,10.21
2018-04-13T12:18:41.114Z,10.24
2018-04-13T12:21:08.607Z,10.21
2018-04-13T12:23:36.109Z,10.20
2018-04-13T12:26:03.593Z,10.14
2018-04-13T12:28:31.143Z,10.16
2018-04-13T12:30:58.639Z,10.18
2018-04-13T12:33:26.247Z,10.17
2018-04-13T12:35:53.740Z,10.18
2018-04-13T12:38:21.251Z,10.20
2018-04-13T12:40:48.761Z,10.30
2018-04-13T12:43:16.222Z,10.37
2018-04-13T12:46:00.185Z,10.47
2018-04-13T12:48:27.773Z,10.56
2018-04-13T12:50:55.340Z,10.58
2018-04-13T12:53:22.864Z,10.73
2018-04-13T12:55:50.336Z,10.86
2018-04-13T12:58:17.794Z,10.94
2018-04-13T13:00:45.314Z,10.98
2018-04-13T13:03:12.787Z,10.96
2018-04-13T13:05:40.305Z,10.89
2018-04-13T13:08:07.778Z,10.82
2018-04-13T13:10:35.288Z,10.72
2018-04-13T13:13:02.789Z,10.69
2018-04-13T13:15:30.340Z,10.65
2018-04-13T13:17:57.850Z,10.66
2018-04-13T13:20:25.323Z,10.72
2018-04-13T13:22:52.838Z,10.96
2018-04-13T13:25:20.305Z,11.21
2018-04-13T13:27:47.856Z,11.37
2018-04-13T13:30:15.417Z,11.40
2018-04-13T13:32:42.904Z,11.45
2018-04-13T13:35:10.459Z,11.24
2018-04-13T13:37:37.924Z,11.23
2018-04-13T13:40:05.597Z,11.25
2018-04-13T13:42:33.103Z,11.32
2018-04-13T13:45:01.503Z,11.19
2018-04-13T13:47:28.997Z,11.13
2018-04-13T13:49:56.559Z,11.13
2018-04-13T13:52:24.052Z,11.02
2018-04-13T13:54:51.539Z,10.90
2018-04-13T13:57:19.016Z,10.88
2018-04-13T13:59:46.492Z,10.81
2018-04-13T14:02:13.977Z,10.80
2018-04-13T14:04:41.694Z,10.75
2018-04-13T14:07:09.174Z,10.75
2018-04-13T14:09:36.633Z,10.73
2018-04-13T14:12:04.118Z,10.75
2018-04-13T14:14:31.879Z,10.77
2018-04-13T14:16:59.342Z,10.71
2018-04-13T14:19:26.829Z,10.67
2018-04-13T14:21:54.287Z,10.60
2018-04-13T14:24:21.854Z,10.51
2018-04-13T14:26:49.345Z,10.49
2018-04-13T14:29:16.812Z,10.50
2018-04-13T14:31:44.373Z,10.46
2018-04-13T14:34:11.947Z,10.48
2018-04-13T14:36:39.449Z,10.49
2018-04-13T14:39:07.073Z,10.54
2018-04-13T14:41:34.553Z,10.64
2018-04-13T14:44:02.050Z,10.64
2018-04-13T14:46:29.540Z,10.70
2018-04-13T14:48:57.025Z,10.79
2018-04-13T14:51:24.647Z,10.76
2018-04-13T14:53:52.221Z,10.83
2018-04-13T14:56:19.726Z,10.88
2018-04-13T14:58:47.247Z,10.91
2018-04-13T15:01:14.737Z,10.97
2018-04-13T15:03:42.246Z,11.10
2018-04-13T15:06:13.248Z,11.24
2018-04-13T15:08:40.728Z,11.35
2018-04-13T15:11:08.239Z,11.52
2018-04-13T15:13:35.722Z,11.66
2018-04-13T15:16:05.008Z,11.95
2018-04-13T15:21:33.122Z,12.46
2018-04-13T15:24:00.614Z,12.72
2018-04-13T15:26:28.216Z,12.96
2018-04-13T15:28:55.747Z,13.10
2018-04-13T15:31:23.230Z,13.06
2018-04-13T15:33:50.746Z,13.00
2018-04-13T15:36:18.232Z,13.11
2018-04-13T15:38:45.755Z,12.85
2018-04-13T15:41:30.271Z,12.97
2018-04-13T15:43:57.741Z,12.96
2018-04-13T15:46:25.331Z,12.79
2018-04-13T15:48:52.810Z,12.88
2018-04-13T15:51:20.292Z,12.92
2018-04-13T15:53:47.766Z,13.02
2018-04-13T15:56:17.034Z,13.36
2018-04-13T15:58:44.619Z,13.61
2018-04-13T16:01:12.126Z,13.82
2018-04-13T16:03:39.780Z,14.05
2018-04-13T16:06:07.285Z,14.33
2018-04-13T16:08:34.933Z,14.60
2018-04-13T16:11:02.413Z,14.92
2018-04-13T16:13:29.900Z,15.46
2018-04-13T16:15:57.417Z,15.90
2018-04-13T16:18:24.907Z,16.22
2018-04-13T16:20:52.388Z,16.59
2018-04-13T16:23:19.911Z,16.94
2018-04-13T16:25:47.400Z,17.10
2018-04-13T16:28:14.891Z,17.14
2018-04-13T16:30:42.381Z,16.90
2018-04-13T16:33:09.849Z,17.02
2018-04-13T16:35:37.362Z,17.19
2018-04-13T16:38:04.872Z,17.39
2018-04-13T16:40:32.428Z,17.53
2018-04-13T16:42:59.924Z,17.59
2018-04-13T16:45:27.396Z,17.44
2018-04-13T16:47:54.900Z,17.10
2018-04-13T16:50:22.388Z,17.13
2018-04-13T16:52:49.905Z,16.88
2018-04-13T16:55:17.406Z,16.76
2018-04-13T16:57:46.963Z,16.59
2018-04-13T17:00:14.425Z,16.63
2018-04-13T17:02:41.961Z,16.43
2018-04-13T17:05:09.434Z,16.18
2018-04-13T17:07:36.988Z,15.74
2018-04-13T17:10:07.557Z,15.35
2018-04-13T17:12:35.109Z,14.90
2018-04-13T17:15:02.700Z,14.70
2018-04-13T17:17:30.208Z,14.57
2018-04-13T17:19:57.681Z,14.28
2018-04-13T17:22:25.169Z,14.08
2018-04-13T17:24:52.643Z,13.79
2018-04-13T17:27:21.109Z,13.68
2018-04-13T17:29:48.673Z,13.41
2018-04-13T17:32:16.146Z,13.25
2018-04-13T17:34:43.702Z,13.03
2018-04-13T17:37:11.227Z,12.88
2018-04-13T17:39:38.766Z,12.72
2018-04-13T17:45:02.345Z,12.34
2018-04-13T17:47:34.003Z,12.22
2018-04-13T17:50:01.911Z,12.08
2018-04-13T17:52:29.541Z,11.92
2018-04-13T17:54:57.135Z,11.72
2018-04-13T17:57:24.679Z,11.62
2018-04-13T17:59:52.227Z,11.48
2018-04-13T18:02:19.735Z,11.36
2018-04-13T18:04:50.022Z,11.23
2018-04-13T18:07:17.667Z,11.12
2018-04-13T18:10:03.991Z,11.02
2018-04-13T18:12:31.869Z,10.91
2018-04-13T18:14:59.342Z,10.87
2018-04-13T18:17:29.935Z,10.81
2018-04-13T18:19:57.456Z,10.69
2018-04-13T18:22:24.920Z,10.52
2018-04-13T18:24:52.508Z,10.46
2018-04-13T18:27:20.081Z,10.43
2018-04-13T18:29:47.681Z,10.36
2018-04-13T18:32:20.086Z,10.30
2018-04-13T18:34:49.225Z,10.21
2018-04-13T18:37:24.273Z,10.16
2018-04-13T18:39:51.779Z,10.13
2018-04-13T18:42:20.034Z,10.10
2018-04-13T18:44:47.844Z,10.06
2018-04-13T18:47:16.493Z,10.01
2018-04-13T18:49:50.007Z,9.95
2018-04-13T18:52:17.938Z,9.99
2018-04-13T18:54:54.445Z,9.92
2018-04-13T18:57:22.065Z,9.88
2018-04-13T18:59:56.163Z,9.89
2018-04-13T19:02:33.104Z,9.85
2018-04-13T19:05:00.874Z,9.82
2018-04-13T19:07:28.679Z,9.80
2018-04-13T19:09:56.249Z,9.78
2018-04-13T19:12:23.775Z,9.70
2018-04-13T19:14:51.241Z,9.65
2018-04-13T19:17:21.710Z,9.60
2018-04-13T19:19:51.518Z,9.51
2018-04-13T19:22:19.032Z,9.53
2018-04-13T19:24:53.446Z,9.51
2018-04-13T19:27:22.575Z,9.50
2018-04-13T19:29:50.083Z,9.50
2018-04-13T19:32:17.693Z,9.47
2018-04-13T19:34:45.194Z,9.52
2018-04-13T19:37:12.783Z,9.48
2018-04-13T19:39:40.265Z,9.45
2018-04-13T19:42:09.869Z,9.38
2018-04-13T19:44:37.432Z,9.43
2018-04-13T19:47:04.923Z,9.38
2018-04-13T19:49:32.433Z,9.38
2018-04-13T19:51:59.937Z,9.36
2018-04-13T19:54:27.695Z,9.36
2018-04-13T19:56:55.175Z,9.32
2018-04-13T19:59:22.756Z,9.32
2018-04-13T20:01:50.271Z,9.29
2018-04-13T20:04:17.821Z,9.26
2018-04-13T20:06:45.333Z,9.23
2018-04-13T20:09:12.885Z,9.24
2018-04-13T20:11:40.512Z,9.24
2018-04-13T20:14:07.999Z,9.26
2018-04-13T20:16:35.506Z,9.27
2018-04-13T20:19:02.985Z,9.30
2018-04-13T20:21:30.476Z,9.32
2018-04-13T20:23:58.083Z,9.30
2018-04-13T20:26:25.565Z,9.30
2018-04-13T20:28:53.069Z,9.34
2018-04-13T20:31:20.557Z,9.44
2018-04-13T20:33:48.193Z,9.48
2018-04-13T20:36:15.689Z,9.54
2018-04-13T20:38:43.186Z,9.57
2018-04-13T20:41:10.668Z,9.56
2018-04-13T20:43:38.169Z,9.55
2018-04-13T20:46:05.739Z,9.50
2018-04-13T20:48:33.233Z,9.47
2018-04-13T20:51:00.790Z,9.45
2018-04-13T20:53:28.287Z,9.34
2018-04-13T20:55:56.007Z,9.22
2018-04-13T20:58:23.617Z,9.19
2018-04-13T21:00:51.118Z,9.09
2018-04-13T21:03:18.602Z,9.07
2018-04-13T21:05:46.098Z,8.96
2018-04-13T21:08:15.483Z,8.89
2018-04-13T21:10:42.984Z,8.83
2018-04-13T21:13:10.474Z,8.76
2018-04-13T21:15:37.986Z,8.78
2018-04-13T21:18:05.478Z,8.72
2018-04-13T21:20:32.968Z,8.70
2018-04-13T21:23:00.446Z,8.67
2018-04-13T21:25:28.021Z,8.62
2018-04-13T21:27:55.492Z,8.56
2018-04-13T21:30:23.038Z,8.60
2018-04-13T21:32:50.540Z,8.51
2018-04-13T21:35:18.068Z,8.48
2018-04-13T21:37:45.553Z,8.42
2018-04-13T21:40:13.025Z,8.41
2018-04-13T21:42:40.501Z,8.40
2018-04-13T21:45:08.106Z,8.37
2018-04-13T21:47:35.572Z,8.27
2018-04-13T21:50:03.072Z,8.22
2018-04-13T21:52:30.625Z,8.17
2018-04-13T21:54:58.093Z,8.10
2018-04-13T21:57:25.600Z,8.03
2018-04-13T21:59:53.138Z,8.00
2018-04-13T22:02:20.658Z,7.98
2018-04-13T22:04:48.129Z,7.99
2018-04-13T22:07:15.613Z,7.93
2018-04-13T22:09:43.087Z,7.91
2018-04-13T22:12:22.385Z,7.87
2018-04-13T22:14:54.865Z,7.83
2018-04-13T22:17:22.364Z,7.86
2018-04-13T22:19:50.979Z,7.78
2018-04-13T22:22:18.472Z,7.75
2018-04-13T22:24:46.042Z,7.79
2018-04-13T22:27:13.646Z,7.76
2018-04-13T22:29:41.146Z,7.76
2018-04-13T22:32:08.645Z,7.75
2018-04-13T22:34:36.140Z,7.77
2018-04-13T22:37:03.616Z,7.71
2018-04-13T22:39:31.105Z,7.68
2018-04-13T22:41:58.607Z,7.66
2018-04-13T22:44:26.137Z,7.70
2018-04-13T22:46:53.661Z,7.65
2018-04-13T22:49:21.141Z,7.63
2018-04-13T22:51:48.771Z,7.58
2018-04-13T22:54:16.249Z,7.50
2018-04-13T22:56:43.746Z,7.54
2018-04-13T22:59:11.238Z,7.54
2018-04-13T23:01:39.507Z,7.55
2018-04-13T23:04:07.000Z,7.51
2018-04-13T23:06:34.458Z,7.55
2018-04-13T23:09:01.938Z,7.55
2018-04-13T23:11:29.451Z,7.52
2018-04-13T23:13:56.943Z,7.50
2018-04-13T23:16:24.448Z,7.46
2018-04-13T23:18:51.918Z,7.41
2018-04-13T23:21:19.395Z,7.43
2018-04-13T23:23:46.879Z,7.48
2018-04-13T23:26:14.457Z,7.52
2018-04-13T23:28:41.932Z,7.58
2018-04-13T23:31:09.424Z,7.60
2018-04-13T23:33:36.932Z,7.60
2018-04-13T23:36:04.457Z,7.53
2018-04-13T23:38:31.959Z,7.57
2018-04-13T23:40:59.427Z,7.57
2018-04-13T23:43:26.901Z,7.59
2018-04-13T23:45:54.376Z,7.57
2018-04-13T23:48:21.903Z,7.55
2018-04-13T23:50:49.400Z,7.62
2018-04-13T23:53:16.886Z,7.72
2018-04-13T23:55:44.365Z,7.74
2018-04-13T23:58:11.864Z,7.77
